Time;durP1;ratioP1;P1;durP2;ratioP2;P2;SDS_P1;SDS_P2;PMS_P1;PMS_P2;Temp;Humidity;BMP_temperature;BMP_pressure;BME280_temperature;BME280_humidity;BME280_pressure;Samples;Min_cycle;Max_cycle;Signal;HPM_P1;HPM_P2
2022/08/02 00:01:27;;;;;;;1.48;1.38;;;17.80;99.90;;;;;;5054678;28;20025;-80
2022/08/02 00:03:53;;;;;;;0.80;0.80;;;17.70;99.90;;;;;;5059124;28;20172;-79
2022/08/02 00:06:18;;;;;;;0.85;0.80;;;17.60;99.90;;;;;;5061680;28;20039;-79
2022/08/02 00:08:44;;;;;;;1.10;1.00;;;17.50;99.90;;;;;;5052408;28;20392;-79
2022/08/02 00:11:09;;;;;;;0.98;0.77;;;17.60;99.90;;;;;;5050032;28;20241;-79
2022/08/02 00:13:35;;;;;;;0.80;0.80;;;17.50;99.90;;;;;;5052188;28;20502;-80
2022/08/02 00:16:00;;;;;;;1.17;1.00;;;17.60;99.90;;;;;;5054751;28;20033;-79
2022/08/02 00:18:26;;;;;;;1.00;0.90;;;17.60;99.90;;;;;;5056643;28;20028;-80
2022/08/02 00:20:53;;;;;;;0.68;0.68;;;17.70;99.90;;;;;;5052255;28;20025;-79
2022/08/02 00:23:19;;;;;;;0.88;0.80;;;17.80;99.90;;;;;;5056156;28;20135;-79
2022/08/02 00:25:45;;;;;;;1.83;1.20;;;17.80;99.90;;;;;;5057905;28;20547;-79
2022/08/02 00:28:10;;;;;;;0.82;0.68;;;17.80;99.90;;;;;;5050267;28;20029;-81
2022/08/02 00:30:36;;;;;;;1.73;1.27;;;17.90;99.90;;;;;;5060813;28;20072;-81
2022/08/02 00:33:03;;;;;;;1.50;1.00;;;18.00;99.90;;;;;;5050960;28;20037;-81
2022/08/02 00:35:29;;;;;;;0.93;0.75;;;18.00;99.90;;;;;;5053752;28;20276;-81
2022/08/02 00:37:54;;;;;;;0.88;0.80;;;18.00;99.90;;;;;;5051274;28;20033;-81
2022/08/02 00:40:22;;;;;;;1.00;0.90;;;18.00;99.90;;;;;;5065182;28;20028;-80
2022/08/02 00:43:08;;;;;;;1.98;0.93;;;18.00;99.90;;;;;;5054301;28;20078;-79
2022/08/02 00:45:37;;;;;;;1.10;0.90;;;18.00;99.90;;;;;;5052217;28;20025;-80
2022/08/02 00:48:04;;;;;;;1.33;0.90;;;18.00;99.90;;;;;;5050594;28;20083;-80
2022/08/02 00:50:30;;;;;;;0.98;0.80;;;18.10;99.90;;;;;;5050807;28;20025;-79
2022/08/02 00:52:57;;;;;;;0.85;0.85;;;18.10;99.90;;;;;;5053533;28;20064;-81
2022/08/02 00:55:23;;;;;;;3.25;1.25;;;18.10;99.90;;;;;;5050843;28;20453;-81
2022/08/02 00:57:48;;;;;;;1.23;1.00;;;18.10;99.90;;;;;;5055940;28;20044;-81
2022/08/02 01:00:14;;;;;;;0.70;0.70;;;18.10;99.90;;;;;;5050596;28;20464;-81
2022/08/02 01:02:40;;;;;;;1.98;0.95;;;18.20;99.90;;;;;;5052178;28;20025;-81
2022/08/02 01:05:06;;;;;;;0.70;0.70;;;18.20;99.90;;;;;;5049028;28;20187;-81
2022/08/02 01:07:32;;;;;;;0.80;0.80;;;18.20;99.90;;;;;;5058708;28;20036;-80
2022/08/02 01:09:57;;;;;;;2.47;1.08;;;18.20;99.90;;;;;;5061522;28;20498;-80
2022/08/02 01:12:23;;;;;;;3.33;1.08;;;18.30;99.90;;;;;;5056877;28;20029;-81
2022/08/02 01:14:59;;;;;;;1.08;1.00;;;18.20;99.90;;;;;;5065119;28;20024;-80
2022/08/02 01:17:37;;;;;;;0.75;0.75;;;18.20;99.90;;;;;;5062140;28;20029;-81
2022/08/02 01:20:36;;;;;;;2.38;1.48;;;18.30;99.90;;;;;;5052136;28;20111;-80
2022/08/02 01:23:31;;;;;;;1.75;1.25;;;18.30;99.90;;;;;;5057147;28;20029;-80
2022/08/02 01:26:30;;;;;;;0.85;0.82;;;18.30;99.90;;;;;;5058218;28;20529;-81
2022/08/02 01:29:10;;;;;;;1.00;0.90;;;18.30;99.90;;;;;;5060624;28;20482;-81
2022/08/02 01:31:54;;;;;;;1.30;1.00;;;18.30;99.90;;;;;;5049216;28;20040;-82
2022/08/02 01:34:29;;;;;;;3.47;0.90;;;18.30;99.90;;;;;;5054417;28;20028;-82
2022/08/02 01:37:17;;;;;;;1.13;1.00;;;18.30;99.90;;;;;;5049805;28;20024;-80
2022/08/02 01:39:45;;;;;;;1.58;1.02;;;18.30;99.90;;;;;;5054600;28;20025;-82
2022/08/02 01:42:12;;;;;;;1.23;1.00;;;18.30;99.90;;;;;;5059387;28;20025;-82
2022/08/02 01:44:41;;;;;;;1.58;1.10;;;18.30;99.90;;;;;;5062023;28;20036;-82
2022/08/02 01:47:16;;;;;;;1.20;1.10;;;18.30;99.90;;;;;;5051413;28;20041;-80
2022/08/02 01:49:45;;;;;;;0.82;0.82;;;18.30;99.90;;;;;;5052126;28;20514;-80
2022/08/02 01:52:21;;;;;;;1.73;1.50;;;18.30;99.90;;;;;;5060366;28;20033;-81
2022/08/02 01:55:03;;;;;;;0.90;0.90;;;18.30;99.90;;;;;;5049245;28;20033;-80
2022/08/02 01:57:45;;;;;;;;;;;18.30;99.90;;;;;;5053697;28;20031;-80
2022/08/02 02:00:11;;;;;;;0.95;0.75;;;18.30;99.90;;;;;;5053351;28;20280;-80
2022/08/02 02:02:41;;;;;;;0.85;0.80;;;18.30;99.90;;;;;;5050566;28;20546;-80
2022/08/02 02:05:11;;;;;;;0.98;0.98;;;18.30;99.90;;;;;;5057560;28;20227;-80
2022/08/02 02:07:37;;;;;;;0.90;0.90;;;18.30;99.90;;;;;;5058691;28;20040;-80
2022/08/02 02:10:04;;;;;;;0.80;0.80;;;18.30;99.90;;;;;;5051862;28;20025;-80
2022/08/02 02:12:32;;;;;;;0.80;0.80;;;18.30;99.90;;;;;;5054545;28;20029;-81
2022/08/02 02:14:59;;;;;;;2.03;1.10;;;18.30;99.90;;;;;;5055739;28;20052;-82
2022/08/02 02:17:26;;;;;;;0.90;0.90;;;18.30;99.90;;;;;;5050479;28;20047;-82
2022/08/02 02:19:54;;;;;;;1.40;1.15;;;18.30;99.90;;;;;;5056968;28;20028;-82
2022/08/02 02:22:20;;;;;;;1.08;0.98;;;18.30;99.90;;;;;;5057869;28;20033;-82
2022/08/02 02:24:45;;;;;;;0.90;0.90;;;18.30;99.90;;;;;;5057204;28;20613;-82
2022/08/02 02:27:13;;;;;;;4.53;0.90;;;18.30;99.90;;;;;;5049556;28;20036;-83
2022/08/02 02:29:43;;;;;;;0.70;0.70;;;18.30;99.90;;;;;;5051273;28;20122;-83
2022/08/02 02:32:10;;;;;;;1.30;1.02;;;18.30;99.90;;;;;;5058786;28;20044;-83
2022/08/02 02:34:39;;;;;;;1.58;1.23;;;18.30;99.90;;;;;;5055982;28;20525;-84
2022/08/02 02:37:11;;;;;;;0.90;0.90;;;18.30;99.90;;;;;;5049801;28;20049;-82
2022/08/02 02:39:38;;;;;;;1.10;1.00;;;18.30;99.90;;;;;;5048243;28;20070;-84
2022/08/02 02:42:07;;;;;;;1.17;0.98;;;18.30;99.90;;;;;;5056872;28;20032;-81
2022/08/02 02:44:35;;;;;;;1.67;0.90;;;18.30;99.90;;;;;;5050115;28;20116;-80
2022/08/02 02:47:01;;;;;;;1.27;0.98;;;18.30;99.90;;;;;;5053528;28;20122;-81
2022/08/02 02:49:33;;;;;;;1.30;1.20;;;18.30;99.90;;;;;;5049341;28;20033;-80
2022/08/02 02:52:00;;;;;;;2.50;1.27;;;18.30;99.90;;;;;;5059828;28;20150;-80
2022/08/02 02:54:27;;;;;;;1.25;1.00;;;18.20;99.90;;;;;;5052034;28;20111;-80
2022/08/02 02:56:53;;;;;;;2.13;1.05;;;18.20;99.90;;;;;;5055513;28;20037;-82
2022/08/02 02:59:19;;;;;;;3.33;1.63;;;18.10;99.90;;;;;;5050068;28;20396;-79
2022/08/02 03:01:45;;;;;;;1.10;1.00;;;18.00;99.90;;;;;;5054100;28;20029;-79
2022/08/02 03:04:12;;;;;;;1.67;1.35;;;17.80;99.90;;;;;;5059159;28;20016;-83
2022/08/02 03:06:39;;;;;;;1.23;0.93;;;17.70;99.90;;;;;;5051036;28;20036;-83
2022/08/02 03:09:05;;;;;;;1.08;0.95;;;17.60;99.90;;;;;;5049804;28;20377;-81
2022/08/02 03:11:32;;;;;;;0.80;0.80;;;17.50;99.90;;;;;;5050024;28;20114;-80
2022/08/02 03:13:59;;;;;;;1.23;1.10;;;17.50;99.90;;;;;;5050206;28;20033;-81
2022/08/02 03:16:27;;;;;;;0.82;0.82;;;17.40;99.90;;;;;;5054430;28;20029;-80
2022/08/02 03:18:53;;;;;;;5.03;1.50;;;17.40;99.90;;;;;;5055066;28;20028;-80
2022/08/02 03:21:19;;;;;;;2.05;1.38;;;17.30;99.90;;;;;;5048851;28;20028;-80
2022/08/02 03:23:46;;;;;;;0.88;0.88;;;17.30;99.90;;;;;;5049060;28;20388;-80
2022/08/02 03:26:12;;;;;;;1.67;1.05;;;17.30;99.90;;;;;;5047741;28;20033;-79
2022/08/02 03:28:39;;;;;;;1.27;1.05;;;17.20;99.90;;;;;;5049866;28;20033;-79
2022/08/02 03:31:04;;;;;;;0.93;0.90;;;17.20;99.90;;;;;;5047931;28;20407;-80
2022/08/02 03:33:31;;;;;;;1.15;1.00;;;17.10;99.90;;;;;;5048126;28;20033;-79
2022/08/02 03:36:02;;;;;;;1.50;1.15;;;17.00;99.90;;;;;;5055351;28;20045;-80
2022/08/02 03:38:30;;;;;;;1.88;0.93;;;16.90;99.90;;;;;;5053408;28;20557;-80
2022/08/02 03:40:56;;;;;;;1.63;1.20;;;16.80;99.90;;;;;;5054884;28;20481;-80
2022/08/02 03:43:23;;;;;;;0.65;0.65;;;16.80;99.90;;;;;;5054372;28;20058;-80
2022/08/02 03:45:49;;;;;;;0.98;0.82;;;16.80;99.90;;;;;;5053781;28;20125;-80
2022/08/02 03:48:16;;;;;;;1.38;1.13;;;16.70;99.90;;;;;;5049397;28;20090;-80
2022/08/02 03:50:44;;;;;;;1.38;0.90;;;16.80;99.90;;;;;;5052382;28;20033;-83
2022/08/02 03:53:09;;;;;;;1.15;0.95;;;16.80;99.90;;;;;;5061014;28;20021;-80
2022/08/02 03:55:35;;;;;;;0.95;0.93;;;16.90;99.90;;;;;;5055579;28;20086;-80
2022/08/02 03:58:01;;;;;;;0.90;0.90;;;17.00;99.90;;;;;;5065995;28;20061;-80
2022/08/02 04:00:27;;;;;;;1.10;1.00;;;17.00;99.90;;;;;;5055731;28;20400;-80
2022/08/02 04:02:52;;;;;;;1.65;1.20;;;17.10;99.90;;;;;;5058311;28;20029;-81
2022/08/02 04:05:18;;;;;;;0.68;0.68;;;17.20;99.90;;;;;;5053363;28;20475;-83
2022/08/02 04:07:45;;;;;;;1.70;1.00;;;17.30;99.90;;;;;;5058108;28;20036;-83
2022/08/02 04:10:11;;;;;;;0.88;0.82;;;17.40;99.90;;;;;;5056884;28;20025;-83
2022/08/02 04:12:36;;;;;;;0.90;0.85;;;17.40;99.90;;;;;;5051932;28;20055;-82
2022/08/02 04:15:05;;;;;;;1.05;0.90;;;17.40;99.90;;;;;;5064437;28;20035;-82
2022/08/02 04:17:40;;;;;;;1.13;1.02;;;17.40;99.90;;;;;;5053715;28;20028;-81
2022/08/02 04:20:21;;;;;;;4.60;1.40;;;17.40;99.90;;;;;;5065337;28;20040;-82
2022/08/02 04:22:53;;;;;;;1.40;1.00;;;17.40;99.90;;;;;;5060020;28;20036;-79
2022/08/02 04:25:19;;;;;;;0.70;0.70;;;17.40;99.90;;;;;;5053199;28;20025;-76
2022/08/02 04:27:45;;;;;;;1.88;1.08;;;17.30;99.90;;;;;;5064854;28;20039;-75
2022/08/02 04:30:12;;;;;;;1.15;0.98;;;17.30;99.90;;;;;;5058385;28;20055;-75
2022/08/02 04:32:38;;;;;;;0.80;0.80;;;17.30;99.90;;;;;;5055114;28;20135;-76
2022/08/02 04:35:05;;;;;;;1.17;1.00;;;17.20;99.90;;;;;;5051792;28;20053;-75
2022/08/02 04:37:31;;;;;;;1.75;1.20;;;17.30;99.90;;;;;;5057452;28;20063;-76
2022/08/02 04:39:56;;;;;;;1.33;1.20;;;17.20;99.90;;;;;;5055356;28;20053;-75
2022/08/02 04:42:24;;;;;;;1.10;0.90;;;17.20;99.90;;;;;;5071887;28;20033;-76
2022/08/02 04:44:50;;;;;;;1.02;0.98;;;17.20;99.90;;;;;;5060446;28;20025;-76
2022/08/02 04:47:16;;;;;;;1.00;0.90;;;17.20;99.90;;;;;;5056664;28;20036;-76
2022/08/02 04:49:42;;;;;;;0.80;0.80;;;17.20;99.90;;;;;;5051660;28;20058;-76
2022/08/02 04:52:07;;;;;;;3.13;1.10;;;17.20;99.90;;;;;;5063641;28;20059;-76
2022/08/02 04:54:33;;;;;;;6.30;1.30;;;17.30;99.90;;;;;;5051499;28;20021;-76
2022/08/02 04:56:58;;;;;;;2.40;1.30;;;17.30;99.90;;;;;;5062230;28;20024;-75
2022/08/02 04:59:24;;;;;;;2.67;1.52;;;17.40;99.90;;;;;;5068943;28;20024;-79
2022/08/02 05:01:49;;;;;;;2.05;1.55;;;17.40;99.90;;;;;;5059122;28;20139;-74
2022/08/02 05:04:15;;;;;;;2.75;1.67;;;17.40;99.90;;;;;;5051385;28;20135;-79
2022/08/02 05:06:40;;;;;;;2.03;1.55;;;17.40;99.90;;;;;;5048812;28;20071;-77
2022/08/02 05:09:09;;;;;;;3.20;1.42;;;17.40;99.90;;;;;;5052908;28;20550;-78
2022/08/02 05:11:34;;;;;;;3.72;2.13;;;17.40;99.90;;;;;;5054160;28;20557;-78
2022/08/02 05:14:00;;;;;;;7.93;2.05;;;17.40;99.90;;;;;;5060138;28;20055;-76
2022/08/02 05:16:26;;;;;;;5.35;2.25;;;17.40;99.90;;;;;;5050368;28;20439;-77
2022/08/02 05:18:51;;;;;;;6.60;2.67;;;17.40;99.90;;;;;;5055644;28;20110;-77
2022/08/02 05:21:17;;;;;;;2.58;1.90;;;17.40;99.90;;;;;;5053798;28;20883;-78
2022/08/02 05:23:42;;;;;;;6.07;1.90;;;17.50;99.90;;;;;;5061153;28;20127;-77
2022/08/02 05:26:08;;;;;;;1.63;1.50;;;17.50;99.90;;;;;;5067636;28;20549;-77
2022/08/02 05:28:34;;;;;;;5.75;1.63;;;17.40;99.90;;;;;;5066873;28;20033;-78
2022/08/02 05:30:59;;;;;;;3.28;2.13;;;17.40;99.90;;;;;;5068708;28;20024;-78
2022/08/02 05:33:25;;;;;;;6.85;1.75;;;17.50;99.90;;;;;;5050749;28;20029;-77
2022/08/02 05:35:50;;;;;;;2.80;1.75;;;17.50;99.90;;;;;;5056132;28;20051;-76
2022/08/02 05:38:16;;;;;;;2.28;1.42;;;17.60;99.90;;;;;;5063270;28;20056;-75
2022/08/02 05:40:41;;;;;;;4.65;2.13;;;17.70;99.90;;;;;;5063927;28;20035;-76
2022/08/02 05:43:11;;;;;;;8.68;2.42;;;17.80;99.90;;;;;;5049642;28;20098;-77
2022/08/02 05:45:37;;;;;;;2.20;1.63;;;17.80;99.90;;;;;;5057437;28;20060;-76
2022/08/02 05:48:03;;;;;;;2.35;1.25;;;17.80;99.90;;;;;;5054460;28;20110;-76
2022/08/02 05:50:36;;;;;;;2.05;1.50;;;17.90;99.90;;;;;;5050506;28;20036;-76
2022/08/02 05:53:09;;;;;;;1.55;1.33;;;17.90;99.90;;;;;;5064905;28;20040;-76
2022/08/02 05:55:44;;;;;;;2.10;1.30;;;18.00;99.90;;;;;;5063588;28;20041;-76
2022/08/02 05:58:19;;;;;;;4.15;1.70;;;18.10;99.90;;;;;;5059365;28;20059;-76
2022/08/02 06:00:48;;;;;;;3.33;1.52;;;18.20;99.90;;;;;;5051203;28;20111;-83
2022/08/02 06:03:23;;;;;;;1.95;1.30;;;18.10;99.90;;;;;;5052794;28;20024;-75
2022/08/02 06:06:09;;;;;;;1.55;0.90;;;18.10;99.90;;;;;;5055976;28;20024;-75
2022/08/02 06:08:46;;;;;;;5.68;1.00;;;18.20;99.90;;;;;;5057055;28;20081;-74
2022/08/02 06:11:15;;;;;;;4.00;1.70;;;18.30;99.90;;;;;;5059339;28;20103;-75
2022/08/02 06:13:42;;;;;;;2.70;1.23;;;18.50;99.90;;;;;;5058862;28;20094;-75
2022/08/02 06:16:08;;;;;;;2.70;1.25;;;18.50;99.90;;;;;;5053682;28;20030;-76
2022/08/02 06:18:34;;;;;;;1.60;1.10;;;18.50;99.90;;;;;;5053409;28;20517;-77
2022/08/02 06:21:02;;;;;;;2.13;1.48;;;18.60;99.90;;;;;;5055186;28;20024;-74
2022/08/02 06:23:29;;;;;;;2.95;1.33;;;18.60;99.90;;;;;;5047881;28;20040;-73
2022/08/02 06:25:56;;;;;;;0.93;0.70;;;18.70;99.90;;;;;;5054615;28;20115;-74
2022/08/02 06:28:22;;;;;;;2.05;1.00;;;18.80;99.90;;;;;;5050198;28;20033;-74
2022/08/02 06:30:48;;;;;;;5.15;1.15;;;18.90;97.90;;;;;;5047787;28;20029;-75
2022/08/02 06:33:13;;;;;;;1.25;1.10;;;19.00;98.10;;;;;;5049313;28;20040;-73
2022/08/02 06:36:03;;;;;;;2.63;1.73;;;19.00;98.00;;;;;;5055751;28;20041;-75
2022/08/02 06:38:38;;;;;;;1.85;1.10;;;19.00;96.50;;;;;;5049058;28;20036;-76
2022/08/02 06:41:13;;;;;;;1.20;0.82;;;19.00;96.80;;;;;;5050476;28;20029;-74
2022/08/02 06:44:01;;;;;;;3.25;1.67;;;19.20;95.20;;;;;;5059455;28;20025;-74
2022/08/02 06:46:27;;;;;;;1.85;1.05;;;19.30;95.10;;;;;;5053315;28;20499;-75
2022/08/02 06:48:53;;;;;;;1.08;0.80;;;19.30;94.70;;;;;;5057185;28;20039;-75
2022/08/02 06:51:19;;;;;;;0.70;0.70;;;19.40;95.00;;;;;;5066511;28;20482;-76
2022/08/02 06:53:46;;;;;;;1.30;0.80;;;19.30;94.70;;;;;;5065016;28;20044;-77
2022/08/02 06:56:11;;;;;;;0.57;0.55;;;19.40;95.10;;;;;;5058982;28;20070;-83
2022/08/02 06:58:37;;;;;;;0.70;0.70;;;19.40;93.00;;;;;;5051868;28;20033;-76
2022/08/02 07:01:06;;;;;;;1.73;1.13;;;19.50;93.50;;;;;;5050740;28;20025;-75
2022/08/02 07:03:36;;;;;;;2.60;1.15;;;19.60;92.00;;;;;;5062397;28;20033;-76
2022/08/02 07:06:03;;;;;;;0.70;0.70;;;19.60;92.20;;;;;;5066257;28;20033;-77
2022/08/02 07:08:31;;;;;;;2.78;0.98;;;19.60;92.50;;;;;;5059020;28;20365;-77
2022/08/02 07:11:00;;;;;;;0.80;0.68;;;19.70;91.90;;;;;;5065441;28;20522;-77
2022/08/02 07:13:27;;;;;;;0.50;0.50;;;19.70;91.40;;;;;;5068359;28;20043;-77
2022/08/02 07:15:53;;;;;;;0.82;0.82;;;19.70;91.10;;;;;;5068573;28;20033;-77
2022/08/02 07:18:19;;;;;;;1.13;0.43;;;19.70;91.40;;;;;;5067050;28;20093;-77
2022/08/02 07:20:44;;;;;;;1.08;0.98;;;19.70;91.30;;;;;;5060846;28;20036;-78
2022/08/02 07:23:10;;;;;;;0.68;0.57;;;19.80;90.60;;;;;;5064493;28;20033;-77
2022/08/02 07:25:35;;;;;;;1.02;0.82;;;19.70;91.40;;;;;;5068618;28;20064;-77
2022/08/02 07:28:01;;;;;;;1.40;0.95;;;19.70;90.90;;;;;;5061968;28;20214;-77
2022/08/02 07:30:26;;;;;;;2.35;1.30;;;19.80;91.30;;;;;;5059310;28;20407;-77
2022/08/02 07:33:18;;;;;;;2.97;1.08;;;19.80;91.00;;;;;;5048251;28;20043;-78
2022/08/02 07:35:44;;;;;;;3.33;1.30;;;19.90;90.50;;;;;;5054213;28;20546;-78
2022/08/02 07:38:10;;;;;;;1.23;0.88;;;19.90;90.50;;;;;;5060294;28;20406;-78
2022/08/02 07:40:36;;;;;;;0.60;0.60;;;19.90;90.20;;;;;;5060218;28;20043;-77
2022/08/02 07:43:01;;;;;;;0.80;0.80;;;20.00;88.50;;;;;;5050832;28;20040;-79
2022/08/02 07:45:27;;;;;;;1.48;1.30;;;20.00;88.90;;;;;;5049964;28;20036;-79
2022/08/02 07:47:53;;;;;;;1.70;0.88;;;20.00;88.90;;;;;;5048309;28;20087;-78
2022/08/02 07:50:21;;;;;;;1.45;0.60;;;20.00;90.00;;;;;;5048717;28;20434;-78
2022/08/02 07:52:47;;;;;;;0.93;0.75;;;20.10;90.70;;;;;;5064178;28;20094;-77
2022/08/02 07:55:14;;;;;;;2.83;0.95;;;20.20;90.10;;;;;;5060695;28;20024;-79
2022/08/02 07:57:40;;;;;;;0.75;0.75;;;20.20;89.10;;;;;;5067061;28;20028;-80
2022/08/02 08:00:10;;;;;;;0.68;0.68;;;20.20;88.20;;;;;;5067999;28;20168;-77
2022/08/02 08:02:36;;;;;;;0.65;0.65;;;20.30;87.90;;;;;;5066175;28;20055;-77
2022/08/02 08:05:03;;;;;;;1.85;1.25;;;20.30;86.20;;;;;;5061804;28;20048;-79
2022/08/02 08:07:28;;;;;;;0.73;0.73;;;20.30;86.40;;;;;;5053735;28;20459;-78
2022/08/02 08:09:54;;;;;;;4.18;0.82;;;20.30;87.10;;;;;;5051337;28;20121;-77
2022/08/02 08:12:20;;;;;;;2.00;1.45;;;20.40;86.50;;;;;;5061903;28;20039;-76
2022/08/02 08:14:45;;;;;;;1.73;0.85;;;20.50;86.90;;;;;;5067500;28;20024;-78
2022/08/02 08:17:10;;;;;;;3.30;0.80;;;20.60;83.80;;;;;;5058190;28;20107;-74
2022/08/02 08:19:36;;;;;;;0.70;0.70;;;20.60;83.30;;;;;;5051971;28;20035;-75
2022/08/02 08:22:02;;;;;;;0.60;0.60;;;20.60;82.60;;;;;;5058863;28;20078;-79
2022/08/02 08:24:28;;;;;;;0.73;0.73;;;20.60;85.10;;;;;;5061362;28;20029;-76
2022/08/02 08:26:55;;;;;;;0.70;0.60;;;20.80;83.80;;;;;;5053052;28;20032;-76
2022/08/02 08:29:21;;;;;;;0.60;0.60;;;20.90;82.20;;;;;;5054280;28;20049;-76
2022/08/02 08:31:46;;;;;;;0.98;0.88;;;20.90;80.20;;;;;;5056390;28;20450;-76
2022/08/02 08:34:12;;;;;;;1.00;0.60;;;21.00;81.10;;;;;;5052789;28;20056;-77
2022/08/02 08:36:38;;;;;;;0.68;0.68;;;21.10;81.30;;;;;;5047785;28;20060;-76
2022/08/02 08:39:04;;;;;;;1.27;0.88;;;21.10;81.70;;;;;;5050634;28;20053;-76
2022/08/02 08:41:29;;;;;;;0.82;0.63;;;21.20;81.60;;;;;;5060608;28;20071;-75
2022/08/02 08:43:57;;;;;;;0.47;0.47;;;21.40;81.90;;;;;;5059010;28;20025;-77
2022/08/02 08:46:26;;;;;;;0.75;0.70;;;21.30;79.00;;;;;;5054594;28;20032;-77
2022/08/02 08:49:30;;;;;;;1.10;0.93;;;21.30;79.30;;;;;;5051935;28;20776;-79
2022/08/02 08:52:05;;;;;;;1.75;0.98;;;21.40;78.90;;;;;;5048700;28;20047;-77
2022/08/02 08:54:34;;;;;;;3.05;0.82;;;21.50;80.50;;;;;;5047913;28;20032;-77
2022/08/02 08:57:02;;;;;;;1.33;0.90;;;21.60;78.80;;;;;;5054749;28;20214;-78
2022/08/02 08:59:28;;;;;;;0.57;0.57;;;21.60;78.20;;;;;;5059443;28;20059;-76
2022/08/02 09:01:55;;;;;;;2.00;0.70;;;21.70;79.00;;;;;;5064083;28;20051;-78
2022/08/02 09:04:21;;;;;;;1.45;0.80;;;21.80;79.60;;;;;;5061520;28;20032;-76
2022/08/02 09:06:47;;;;;;;0.73;0.65;;;21.90;78.90;;;;;;5051257;28;20074;-77
2022/08/02 09:09:12;;;;;;;4.63;1.08;;;22.00;78.40;;;;;;5050983;28;20036;-77
2022/08/02 09:11:38;;;;;;;0.68;0.65;;;22.20;78.40;;;;;;5056167;28;20043;-77
2022/08/02 09:14:04;;;;;;;2.63;1.00;;;22.20;79.50;;;;;;5063430;28;20036;-77
2022/08/02 09:16:38;;;;;;;1.40;0.68;;;22.40;78.50;;;;;;5051152;28;20380;-76
2022/08/02 09:19:24;;;;;;;3.13;1.27;;;22.40;75.20;;;;;;5051329;28;20135;-77
2022/08/02 09:21:51;;;;;;;1.27;0.95;;;22.40;76.40;;;;;;5060660;28;20775;-77
2022/08/02 09:24:22;;;;;;;1.42;0.90;;;22.60;80.30;;;;;;5059766;28;20033;-76
2022/08/02 09:26:48;;;;;;;;;;;22.70;76.20;;;;;;5052699;28;20499;-78
2022/08/02 09:29:15;;;;;;;0.73;0.73;;;22.80;75.40;;;;;;5065880;28;19944;-76
2022/08/02 09:31:41;;;;;;;1.10;0.85;;;22.80;74.80;;;;;;5066013;28;20084;-77
2022/08/02 09:34:07;;;;;;;1.10;1.00;;;22.80;75.20;;;;;;5067295;28;20032;-77
2022/08/02 09:36:44;;;;;;;0.65;0.65;;;22.90;74.50;;;;;;5057844;28;20079;-77
2022/08/02 09:39:12;;;;;;;0.90;0.80;;;22.90;74.30;;;;;;5049237;28;20036;-79
2022/08/02 09:41:40;;;;;;;1.85;0.98;;;22.90;74.30;;;;;;5053046;28;20025;-80
2022/08/02 09:44:08;;;;;;;0.95;0.60;;;22.90;73.60;;;;;;5052404;28;20135;-76
2022/08/02 09:46:40;;;;;;;0.80;0.77;;;23.00;72.20;;;;;;5063083;28;20024;-77
2022/08/02 09:49:48;;;;;;;1.42;1.08;;;23.10;74.90;;;;;;5066789;28;20052;-79
2022/08/02 09:52:14;;;;;;;0.75;0.75;;;23.30;74.20;;;;;;5059893;28;20036;-80
2022/08/02 09:54:40;;;;;;;1.63;0.75;;;23.30;72.00;;;;;;5050752;28;20033;-86
2022/08/02 09:57:06;;;;;;;0.80;0.80;;;23.20;70.40;;;;;;5058249;28;20020;-87
2022/08/02 09:59:31;;;;;;;1.30;1.00;;;23.20;70.60;;;;;;5058985;28;20421;-84
2022/08/02 10:01:58;;;;;;;3.60;0.85;;;23.10;72.00;;;;;;5054340;28;20041;-80
2022/08/02 10:04:27;;;;;;;0.50;0.50;;;23.30;71.40;;;;;;5059973;28;20036;-79
2022/08/02 10:06:53;;;;;;;0.80;0.80;;;23.30;70.00;;;;;;5052467;28;20503;-79
2022/08/02 10:09:20;;;;;;;1.00;0.90;;;23.50;69.30;;;;;;5053266;28;20036;-80
2022/08/02 10:11:46;;;;;;;0.80;0.80;;;23.50;69.30;;;;;;5057889;28;20115;-81
2022/08/02 10:14:12;;;;;;;1.20;0.70;;;23.80;69.10;;;;;;5052641;28;20044;-77
2022/08/02 10:16:42;;;;;;;4.65;1.17;;;24.10;68.10;;;;;;5046295;28;20085;-77
2022/08/02 10:19:08;;;;;;;1.05;0.80;;;24.10;67.20;;;;;;5056445;28;20027;-75
2022/08/02 10:21:53;;;;;;;1.55;0.77;;;24.30;66.50;;;;;;5051876;28;20028;-81
2022/08/02 10:24:21;;;;;;;1.95;0.90;;;24.30;65.60;;;;;;5063538;28;20021;-84
2022/08/02 10:26:48;;;;;;;0.75;0.75;;;24.30;68.50;;;;;;5050766;28;20032;-82
2022/08/02 10:29:17;;;;;;;0.85;0.80;;;24.10;65.10;;;;;;5051814;28;20040;-80
2022/08/02 10:31:48;;;;;;;1.10;0.80;;;24.00;65.90;;;;;;5055111;28;20029;-80
2022/08/02 10:34:17;;;;;;;2.75;1.10;;;23.80;66.80;;;;;;5051949;28;20063;-79
2022/08/02 10:36:44;;;;;;;0.70;0.70;;;24.00;66.40;;;;;;5057995;28;20629;-78
2022/08/02 10:39:11;;;;;;;0.95;0.68;;;24.20;66.70;;;;;;5059627;28;20535;-78
2022/08/02 10:41:49;;;;;;;1.92;0.70;;;24.60;65.30;;;;;;5058210;28;20142;-78
2022/08/02 10:44:29;;;;;;;0.90;0.65;;;24.70;64.70;;;;;;5052510;28;20052;-77
2022/08/02 10:47:14;;;;;;;0.80;0.80;;;24.70;64.90;;;;;;5047489;28;20075;-78
2022/08/02 10:49:52;;;;;;;0.80;0.80;;;24.50;65.20;;;;;;5050248;28;20983;-76
2022/08/02 10:52:34;;;;;;;0.90;0.90;;;24.10;64.10;;;;;;5055942;28;20037;-77
2022/08/02 10:55:00;;;;;;;;;;;23.90;65.60;;;;;;5058118;28;20387;-80
2022/08/02 10:57:28;;;;;;;2.75;1.77;;;23.90;66.50;;;;;;5063797;28;20329;-79
2022/08/02 10:59:57;;;;;;;2.65;1.30;;;23.90;66.90;;;;;;5061087;28;20516;-80
2022/08/02 11:02:44;;;;;;;22.63;13.40;;;24.30;64.00;;;;;;5066927;28;20035;-91
2022/08/02 11:05:17;;;;;;;20.77;13.52;;;24.90;66.80;;;;;;5052528;28;20107;-85
2022/08/02 11:07:47;;;;;;;5.55;3.42;;;25.30;62.90;;;;;;5056751;28;20035;-83
2022/08/02 11:10:25;;;;;;;2.53;1.75;;;25.40;61.00;;;;;;5059931;28;20101;-89
2022/08/02 11:13:04;;;;;;;34.20;18.77;;;25.30;62.20;;;;;;5048571;28;20021;-81
2022/08/02 11:15:45;;;;;;;5.25;3.60;;;25.30;62.90;;;;;;5051517;28;20479;-84
2022/08/02 11:18:11;;;;;;;;;;;25.40;66.10;;;;;;5054527;28;20473;-83
2022/08/02 11:20:36;;;;;;;251.82;149.95;;;25.70;60.80;;;;;;5060123;28;19977;-85
2022/08/02 11:23:37;;;;;;;4.32;3.08;;;26.10;59.40;;;;;;5051209;28;20021;-84
2022/08/02 11:26:29;;;;;;;2.00;1.30;;;26.30;57.70;;;;;;5056468;28;20021;-76
2022/08/02 11:28:56;;;;;;;1.63;0.90;;;26.40;59.80;;;;;;5053066;28;20055;-80
2022/08/02 11:31:21;;;;;;;1.10;0.98;;;26.90;58.70;;;;;;5055232;28;20037;-83
2022/08/02 11:33:51;;;;;;;1.88;1.30;;;27.40;56.70;;;;;;5049140;28;20021;-80
2022/08/02 11:36:17;;;;;;;11.65;5.85;;;28.00;56.10;;;;;;5049293;28;20415;-85
2022/08/02 11:38:43;;;;;;;3.95;2.25;;;;;;;;;;5051580;28;20029;-78
2022/08/02 11:41:10;;;;;;;1.35;1.20;;;;;;;;;;5048626;28;20048;-86
2022/08/02 11:43:36;;;;;;;10.25;7.32;;;28.30;73.30;;;;;;5053083;28;20539;-83
2022/08/02 11:46:03;;;;;;;6.38;3.58;;;27.80;60.40;;;;;;5060007;28;20116;-94
2022/08/02 11:48:36;;;;;;;343.73;196.93;;;27.80;60.90;;;;;;5060224;28;20028;-77
2022/08/02 11:51:08;;;;;;;110.18;55.15;;;28.00;61.80;;;;;;5056981;28;20060;-87
2022/08/02 11:53:46;;;;;;;249.05;141.23;;;28.80;62.70;;;;;;5051557;28;20115;-89
2022/08/02 11:56:13;;;;;;;22.83;13.82;;;29.60;60.40;;;;;;5049783;28;20082;-77
2022/08/02 11:58:38;;;;;;;76.25;38.05;;;29.40;58.40;;;;;;5047708;28;20072;-86
2022/08/02 12:01:04;;;;;;;23.05;13.45;;;29.20;57.70;;;;;;5051048;28;20020;-86
2022/08/02 12:03:38;;;;;;;35.90;24.30;;;29.40;56.70;;;;;;5053898;28;20057;-88
2022/08/02 12:06:04;;;;;;;6.18;4.18;;;29.50;55.00;;;;;;5050057;28;20047;-85
2022/08/02 12:08:35;;;;;;;41.67;25.17;;;29.70;55.30;;;;;;5059531;28;20025;-87
2022/08/02 12:11:01;;;;;;;6.38;4.10;;;30.50;54.30;;;;;;5053460;28;20052;-87
2022/08/02 12:13:27;;;;;;;2.42;1.65;;;30.70;52.10;;;;;;5062188;28;20032;-87
2022/08/02 12:19:17;;;;;;;2.72;1.80;;;31.00;53.10;;;;;;5056499;28;20383;-86
2022/08/02 12:21:30;;;;;;;1.20;1.10;;;30.90;52.70;;;;;;5055147;28;20040;-87
2022/08/02 12:23:56;;;;;;;1.25;1.00;;;30.90;49.60;;;;;;5056418;28;20394;-89
2022/08/02 12:26:21;;;;;;;3.25;1.45;;;30.40;51.60;;;;;;5060452;28;20037;-89
2022/08/02 12:28:55;;;;;;;2.15;1.23;;;30.70;49.90;;;;;;5061847;28;20029;-93
2022/08/02 12:31:20;;;;;;;1.48;0.60;;;31.90;51.40;;;;;;5054549;28;20025;-88
2022/08/02 12:33:51;;;;;;;1.00;0.90;;;33.50;48.10;;;;;;5058899;28;20036;-85
2022/08/02 12:36:17;;;;;;;0.60;0.60;;;33.20;45.50;;;;;;5050712;28;20690;-83
2022/08/02 12:39:00;;;;;;;0.90;0.90;;;32.90;45.60;;;;;;5059757;28;20020;-83
2022/08/02 12:41:27;;;;;;;1.77;1.00;;;32.70;47.90;;;;;;5069296;28;20025;-82
2022/08/02 12:43:54;;;;;;;1.67;1.55;;;32.50;45.80;;;;;;5059588;28;20048;-85
2022/08/02 12:46:22;;;;;;;4.85;1.90;;;32.90;44.90;;;;;;5053675;28;20507;-83
2022/08/02 12:48:48;;;;;;;0.80;0.80;;;32.90;44.80;;;;;;5059059;28;20568;-82
2022/08/02 12:51:18;;;;;;;1.40;1.10;;;34.20;45.70;;;;;;5052847;28;20058;-82
2022/08/02 12:53:43;;;;;;;2.17;0.80;;;33.60;44.00;;;;;;5052529;28;20024;-73
2022/08/02 12:56:09;;;;;;;0.95;0.90;;;33.70;43.80;;;;;;5049178;28;20024;-86
2022/08/02 12:58:48;;;;;;;0.70;0.70;;;35.80;40.90;;;;;;5041475;28;20158;-83
2022/08/02 13:01:20;;;;;;;0.90;0.90;;;;;;;;;;5052758;28;20026;-84